sensor_id;sensor_type;location;lat;lon;timestamp;temperature;humidity
52125;DHT22;38119;52.710;6.398;2022-09-01T00:01:43;16.10;99.90
52125;DHT22;38119;52.710;6.398;2022-09-01T00:04:12;16.10;99.90
52125;DHT22;38119;52.710;6.398;2022-09-01T00:06:45;16.10;99.90
52125;DHT22;38119;52.710;6.398;2022-09-01T00:09:14;16.10;99.90
52125;DHT22;38119;52.710;6.398;2022-09-01T00:11:44;16.30;99.90
52125;DHT22;38119;52.710;6.398;2022-09-01T00:14:12;16.00;99.90
52125;DHT22;38119;52.710;6.398;2022-09-01T00:16:38;16.00;99.90
52125;DHT22;38119;52.710;6.398;2022-09-01T00:19:05;16.00;99.90
52125;DHT22;38119;52.710;6.398;2022-09-01T00:21:40;16.00;99.90
52125;DHT22;38119;52.710;6.398;2022-09-01T00:24:10;16.00;99.90
52125;DHT22;38119;52.710;6.398;2022-09-01T00:26:37;15.90;99.90
52125;DHT22;38119;52.710;6.398;2022-09-01T00:29:04;15.90;99.90
52125;DHT22;38119;52.710;6.398;2022-09-01T00:31:33;15.90;99.90
52125;DHT22;38119;52.710;6.398;2022-09-01T00:33:59;15.90;99.90
52125;DHT22;38119;52.710;6.398;2022-09-01T00:36:25;15.90;99.90
52125;DHT22;38119;52.710;6.398;2022-09-01T00:38:51;15.80;99.90
52125;DHT22;38119;52.710;6.398;2022-09-01T00:41:19;15.70;99.90
52125;DHT22;38119;52.710;6.398;2022-09-01T00:43:48;15.80;99.90
52125;DHT22;38119;52.710;6.398;2022-09-01T00:48:53;16.10;99.90
52125;DHT22;38119;52.710;6.398;2022-09-01T00:51:27;15.70;99.90
52125;DHT22;38119;52.710;6.398;2022-09-01T00:53:54;15.70;99.90
52125;DHT22;38119;52.710;6.398;2022-09-01T00:56:22;15.70;99.90
52125;DHT22;38119;52.710;6.398;2022-09-01T00:58:49;16.00;99.90
52125;DHT22;38119;52.710;6.398;2022-09-01T01:01:17;15.60;99.90
52125;DHT22;38119;52.710;6.398;2022-09-01T01:03:43;15.70;99.90
52125;DHT22;38119;52.710;6.398;2022-09-01T01:06:16;15.90;99.90
52125;DHT22;38119;52.710;6.398;2022-09-01T01:08:46;15.60;99.90
52125;DHT22;38119;52.710;6.398;2022-09-01T01:11:30;15.60;99.90
52125;DHT22;38119;52.710;6.398;2022-09-01T01:14:04;15.60;99.90
52125;DHT22;38119;52.710;6.398;2022-09-01T01:16:43;15.60;99.90
52125;DHT22;38119;52.710;6.398;2022-09-01T01:19:19;15.60;99.90
52125;DHT22;38119;52.710;6.398;2022-09-01T01:22:11;15.50;99.90
52125;DHT22;38119;52.710;6.398;2022-09-01T01:24:56;15.50;99.90
52125;DHT22;38119;52.710;6.398;2022-09-01T01:27:23;15.50;99.90
52125;DHT22;38119;52.710;6.398;2022-09-01T01:29:49;15.50;99.90
52125;DHT22;38119;52.710;6.398;2022-09-01T01:32:17;15.40;99.90
52125;DHT22;38119;52.710;6.398;2022-09-01T01:34:43;15.40;99.90
52125;DHT22;38119;52.710;6.398;2022-09-01T01:37:11;15.40;99.90
52125;DHT22;38119;52.710;6.398;2022-09-01T01:39:39;15.40;99.90
52125;DHT22;38119;52.710;6.398;2022-09-01T01:42:08;15.40;99.90
52125;DHT22;38119;52.710;6.398;2022-09-01T01:44:35;15.30;99.90
52125;DHT22;38119;52.710;6.398;2022-09-01T01:47:10;15.30;99.90
52125;DHT22;38119;52.710;6.398;2022-09-01T01:49:39;15.40;99.90
52125;DHT22;38119;52.710;6.398;2022-09-01T01:52:10;15.20;99.90
52125;DHT22;38119;52.710;6.398;2022-09-01T01:54:37;15.20;99.90
52125;DHT22;38119;52.710;6.398;2022-09-01T01:57:03;15.20;99.90
52125;DHT22;38119;52.710;6.398;2022-09-01T01:59:29;15.20;99.90
52125;DHT22;38119;52.710;6.398;2022-09-01T02:01:58;15.10;99.90
52125;DHT22;38119;52.710;6.398;2022-09-01T02:04:25;15.20;99.90
52125;DHT22;38119;52.710;6.398;2022-09-01T02:06:52;15.10;99.90
52125;DHT22;38119;52.710;6.398;2022-09-01T02:09:20;15.10;99.90
52125;DHT22;38119;52.710;6.398;2022-09-01T02:11:48;15.00;99.90
52125;DHT22;38119;52.710;6.398;2022-09-01T02:14:24;15.10;99.90
52125;DHT22;38119;52.710;6.398;2022-09-01T02:16:50;15.50;99.90
52125;DHT22;38119;52.710;6.398;2022-09-01T02:19:20;15.00;99.90
52125;DHT22;38119;52.710;6.398;2022-09-01T02:21:46;15.00;99.90
52125;DHT22;38119;52.710;6.398;2022-09-01T02:24:21;15.00;99.90
52125;DHT22;38119;52.710;6.398;2022-09-01T02:26:48;15.10;99.90
52125;DHT22;38119;52.710;6.398;2022-09-01T02:29:17;14.90;99.90
52125;DHT22;38119;52.710;6.398;2022-09-01T02:31:48;14.90;99.90
52125;DHT22;38119;52.710;6.398;2022-09-01T02:34:15;15.20;99.90
52125;DHT22;38119;52.710;6.398;2022-09-01T02:36:47;14.90;99.90
52125;DHT22;38119;52.710;6.398;2022-09-01T02:39:36;14.80;99.90
52125;DHT22;38119;52.710;6.398;2022-09-01T02:42:01;14.80;99.90
52125;DHT22;38119;52.710;6.398;2022-09-01T02:44:28;14.80;99.90
52125;DHT22;38119;52.710;6.398;2022-09-01T02:46:55;14.80;99.90
52125;DHT22;38119;52.710;6.398;2022-09-01T02:49:22;14.70;99.90
52125;DHT22;38119;52.710;6.398;2022-09-01T02:51:55;14.90;99.90
52125;DHT22;38119;52.710;6.398;2022-09-01T02:54:23;14.70;99.90
52125;DHT22;38119;52.710;6.398;2022-09-01T02:56:54;14.70;99.90
52125;DHT22;38119;52.710;6.398;2022-09-01T02:59:21;14.70;99.90
52125;DHT22;38119;52.710;6.398;2022-09-01T03:01:50;14.60;99.90
52125;DHT22;38119;52.710;6.398;2022-09-01T03:04:17;14.60;99.90
52125;DHT22;38119;52.710;6.398;2022-09-01T03:06:45;14.70;99.90
52125;DHT22;38119;52.710;6.398;2022-09-01T03:09:14;14.60;99.90
52125;DHT22;38119;52.710;6.398;2022-09-01T03:11:44;14.90;99.90
52125;DHT22;38119;52.710;6.398;2022-09-01T03:14:12;14.70;99.90
52125;DHT22;38119;52.710;6.398;2022-09-01T03:16:38;14.50;99.90
52125;DHT22;38119;52.710;6.398;2022-09-01T03:19:06;14.40;99.90
52125;DHT22;38119;52.710;6.398;2022-09-01T03:21:35;14.50;99.90
52125;DHT22;38119;52.710;6.398;2022-09-01T03:24:02;14.50;99.90
52125;DHT22;38119;52.710;6.398;2022-09-01T03:26:29;14.50;99.90
52125;DHT22;38119;52.710;6.398;2022-09-01T03:28:55;14.40;99.90
52125;DHT22;38119;52.710;6.398;2022-09-01T03:31:21;14.40;99.90
52125;DHT22;38119;52.710;6.398;2022-09-01T03:33:51;14.40;99.90
52125;DHT22;38119;52.710;6.398;2022-09-01T03:36:18;14.30;99.90
52125;DHT22;38119;52.710;6.398;2022-09-01T03:38:46;14.90;99.90
52125;DHT22;38119;52.710;6.398;2022-09-01T03:41:18;14.30;99.90
52125;DHT22;38119;52.710;6.398;2022-09-01T03:43:47;14.30;99.90
52125;DHT22;38119;52.710;6.398;2022-09-01T03:46:15;14.30;99.90
52125;DHT22;38119;52.710;6.398;2022-09-01T03:48:51;14.20;99.90
52125;DHT22;38119;52.710;6.398;2022-09-01T03:51:19;14.60;99.90
52125;DHT22;38119;52.710;6.398;2022-09-01T03:53:47;14.30;99.90
52125;DHT22;38119;52.710;6.398;2022-09-01T03:56:16;14.50;99.90
52125;DHT22;38119;52.710;6.398;2022-09-01T03:58:42;14.10;99.90
52125;DHT22;38119;52.710;6.398;2022-09-01T04:01:12;14.60;99.90
52125;DHT22;38119;52.710;6.398;2022-09-01T04:03:38;14.20;99.90
52125;DHT22;38119;52.710;6.398;2022-09-01T04:06:07;14.10;99.90
52125;DHT22;38119;52.710;6.398;2022-09-01T04:08:35;14.10;99.90
52125;DHT22;38119;52.710;6.398;2022-09-01T04:11:04;14.10;99.90
52125;DHT22;38119;52.710;6.398;2022-09-01T04:13:37;14.10;99.90
52125;DHT22;38119;52.710;6.398;2022-09-01T04:16:04;14.10;99.90
52125;DHT22;38119;52.710;6.398;2022-09-01T04:18:55;14.00;99.90
52125;DHT22;38119;52.710;6.398;2022-09-01T04:21:21;14.00;99.90
52125;DHT22;38119;52.710;6.398;2022-09-01T04:23:47;14.00;99.90
52125;DHT22;38119;52.710;6.398;2022-09-01T04:26:13;14.10;99.90
52125;DHT22;38119;52.710;6.398;2022-09-01T04:28:47;13.90;99.90
52125;DHT22;38119;52.710;6.398;2022-09-01T04:31:17;13.90;99.90
52125;DHT22;38119;52.710;6.398;2022-09-01T04:33:51;13.90;99.90
52125;DHT22;38119;52.710;6.398;2022-09-01T04:36:23;13.90;99.90
52125;DHT22;38119;52.710;6.398;2022-09-01T04:38:56;14.00;99.90
52125;DHT22;38119;52.710;6.398;2022-09-01T04:41:23;13.90;99.90
52125;DHT22;38119;52.710;6.398;2022-09-01T04:43:51;13.80;99.90
52125;DHT22;38119;52.710;6.398;2022-09-01T04:46:22;13.90;99.90
52125;DHT22;38119;52.710;6.398;2022-09-01T04:48:51;13.80;99.90
52125;DHT22;38119;52.710;6.398;2022-09-01T04:51:19;13.80;99.90
52125;DHT22;38119;52.710;6.398;2022-09-01T04:53:45;13.80;99.90
52125;DHT22;38119;52.710;6.398;2022-09-01T04:56:18;13.80;99.90
52125;DHT22;38119;52.710;6.398;2022-09-01T04:58:45;13.70;99.90
52125;DHT22;38119;52.710;6.398;2022-09-01T05:01:18;13.80;99.90
52125;DHT22;38119;52.710;6.398;2022-09-01T05:03:44;13.80;99.90
52125;DHT22;38119;52.710;6.398;2022-09-01T05:06:14;14.10;99.90
52125;DHT22;38119;52.710;6.398;2022-09-01T05:08:42;13.80;99.90
52125;DHT22;38119;52.710;6.398;2022-09-01T05:11:11;13.70;99.90
52125;DHT22;38119;52.710;6.398;2022-09-01T05:13:46;13.70;99.90
52125;DHT22;38119;52.710;6.398;2022-09-01T05:16:15;13.70;99.90
52125;DHT22;38119;52.710;6.398;2022-09-01T05:18:45;13.70;99.90
52125;DHT22;38119;52.710;6.398;2022-09-01T05:21:14;13.70;99.90
52125;DHT22;38119;52.710;6.398;2022-09-01T05:23:42;13.70;99.90
52125;DHT22;38119;52.710;6.398;2022-09-01T05:26:18;13.90;99.90
52125;DHT22;38119;52.710;6.398;2022-09-01T05:28:50;13.70;99.90
52125;DHT22;38119;52.710;6.398;2022-09-01T05:31:18;13.70;99.90
52125;DHT22;38119;52.710;6.398;2022-09-01T05:33:46;13.70;99.90
52125;DHT22;38119;52.710;6.398;2022-09-01T05:36:17;13.70;99.90
52125;DHT22;38119;52.710;6.398;2022-09-01T05:38:45;13.90;99.90
52125;DHT22;38119;52.710;6.398;2022-09-01T05:41:14;13.70;99.90
52125;DHT22;38119;52.710;6.398;2022-09-01T05:43:45;13.70;99.90
52125;DHT22;38119;52.710;6.398;2022-09-01T05:46:14;13.70;99.90
52125;DHT22;38119;52.710;6.398;2022-09-01T05:48:45;13.70;99.90
52125;DHT22;38119;52.710;6.398;2022-09-01T05:51:11;13.70;99.90
52125;DHT22;38119;52.710;6.398;2022-09-01T05:53:41;13.70;99.90
52125;DHT22;38119;52.710;6.398;2022-09-01T05:56:09;14.00;99.90
52125;DHT22;38119;52.710;6.398;2022-09-01T05:58:39;13.80;99.90
52125;DHT22;38119;52.710;6.398;2022-09-01T06:01:09;13.70;99.90
52125;DHT22;38119;52.710;6.398;2022-09-01T06:03:41;13.80;99.90
52125;DHT22;38119;52.710;6.398;2022-09-01T06:06:09;14.00;99.90
52125;DHT22;38119;52.710;6.398;2022-09-01T06:08:37;13.80;99.90
52125;DHT22;38119;52.710;6.398;2022-09-01T06:11:03;13.90;99.90
52125;DHT22;38119;52.710;6.398;2022-09-01T06:13:37;13.90;99.90
52125;DHT22;38119;52.710;6.398;2022-09-01T06:16:08;13.90;99.90
52125;DHT22;38119;52.710;6.398;2022-09-01T06:18:35;14.00;99.90
52125;DHT22;38119;52.710;6.398;2022-09-01T06:21:05;14.10;99.90
52125;DHT22;38119;52.710;6.398;2022-09-01T06:23:33;14.00;99.90
52125;DHT22;38119;52.710;6.398;2022-09-01T06:26:00;14.00;99.90
52125;DHT22;38119;52.710;6.398;2022-09-01T06:28:27;14.00;99.90
52125;DHT22;38119;52.710;6.398;2022-09-01T06:30:58;14.00;99.90
52125;DHT22;38119;52.710;6.398;2022-09-01T06:33:25;14.10;99.90
52125;DHT22;38119;52.710;6.398;2022-09-01T06:35:51;14.10;99.90
52125;DHT22;38119;52.710;6.398;2022-09-01T06:38:18;14.10;99.90
52125;DHT22;38119;52.710;6.398;2022-09-01T06:40:45;14.30;99.90
52125;DHT22;38119;52.710;6.398;2022-09-01T06:43:11;14.20;99.90
52125;DHT22;38119;52.710;6.398;2022-09-01T06:45:45;14.40;99.90
52125;DHT22;38119;52.710;6.398;2022-09-01T06:48:18;14.20;99.90
52125;DHT22;38119;52.710;6.398;2022-09-01T06:50:44;14.30;99.90
52125;DHT22;38119;52.710;6.398;2022-09-01T06:53:11;14.40;99.90
52125;DHT22;38119;52.710;6.398;2022-09-01T06:55:39;14.30;99.90
52125;DHT22;38119;52.710;6.398;2022-09-01T06:58:07;14.40;99.90
52125;DHT22;38119;52.710;6.398;2022-09-01T07:00:36;14.40;99.90
52125;DHT22;38119;52.710;6.398;2022-09-01T07:03:09;14.60;99.90
52125;DHT22;38119;52.710;6.398;2022-09-01T07:05:40;14.50;99.90
52125;DHT22;38119;52.710;6.398;2022-09-01T07:08:08;14.50;99.90
52125;DHT22;38119;52.710;6.398;2022-09-01T07:10:49;14.50;99.90
52125;DHT22;38119;52.710;6.398;2022-09-01T07:13:20;14.60;99.90
52125;DHT22;38119;52.710;6.398;2022-09-01T07:15:51;14.60;99.90
52125;DHT22;38119;52.710;6.398;2022-09-01T07:18:24;14.70;99.90
52125;DHT22;38119;52.710;6.398;2022-09-01T07:20:50;14.70;99.90
52125;DHT22;38119;52.710;6.398;2022-09-01T07:23:18;14.70;99.90
52125;DHT22;38119;52.710;6.398;2022-09-01T07:25:46;15.20;99.90
52125;DHT22;38119;52.710;6.398;2022-09-01T07:28:14;14.90;99.90
52125;DHT22;38119;52.710;6.398;2022-09-01T07:30:49;14.90;99.90
52125;DHT22;38119;52.710;6.398;2022-09-01T07:33:16;14.90;99.90
52125;DHT22;38119;52.710;6.398;2022-09-01T07:35:46;15.00;99.90
52125;DHT22;38119;52.710;6.398;2022-09-01T07:38:13;15.00;99.90
52125;DHT22;38119;52.710;6.398;2022-09-01T07:40:41;15.10;99.90
52125;DHT22;38119;52.710;6.398;2022-09-01T07:43:17;15.70;99.90
52125;DHT22;38119;52.710;6.398;2022-09-01T07:45:48;15.10;99.90
52125;DHT22;38119;52.710;6.398;2022-09-01T07:48:18;15.20;99.90
52125;DHT22;38119;52.710;6.398;2022-09-01T07:50:51;15.20;99.90
52125;DHT22;38119;52.710;6.398;2022-09-01T07:53:24;15.30;99.90
52125;DHT22;38119;52.710;6.398;2022-09-01T07:55:53;15.40;99.90
52125;DHT22;38119;52.710;6.398;2022-09-01T07:58:25;15.30;99.90
52125;DHT22;38119;52.710;6.398;2022-09-01T08:00:51;15.50;99.90
52125;DHT22;38119;52.710;6.398;2022-09-01T08:03:21;15.50;99.90
52125;DHT22;38119;52.710;6.398;2022-09-01T08:05:51;15.60;99.90
52125;DHT22;38119;52.710;6.398;2022-09-01T08:08:22;15.70;99.90
52125;DHT22;38119;52.710;6.398;2022-09-01T08:10:50;15.70;99.90
52125;DHT22;38119;52.710;6.398;2022-09-01T08:13:17;15.80;99.90
52125;DHT22;38119;52.710;6.398;2022-09-01T08:15:46;15.80;99.90
52125;DHT22;38119;52.710;6.398;2022-09-01T08:18:12;15.90;99.90
52125;DHT22;38119;52.710;6.398;2022-09-01T08:20:39;16.00;99.90
52125;DHT22;38119;52.710;6.398;2022-09-01T08:23:13;16.00;99.90
52125;DHT22;38119;52.710;6.398;2022-09-01T08:25:42;16.10;99.90
52125;DHT22;38119;52.710;6.398;2022-09-01T08:28:09;16.20;99.90
52125;DHT22;38119;52.710;6.398;2022-09-01T08:30:39;16.30;99.90
52125;DHT22;38119;52.710;6.398;2022-09-01T08:33:05;16.40;99.90
52125;DHT22;38119;52.710;6.398;2022-09-01T08:35:31;16.40;99.90
52125;DHT22;38119;52.710;6.398;2022-09-01T08:37:57;16.50;99.90
52125;DHT22;38119;52.710;6.398;2022-09-01T08:40:24;16.60;99.90
52125;DHT22;38119;52.710;6.398;2022-09-01T08:43:26;16.60;99.90
52125;DHT22;38119;52.710;6.398;2022-09-01T08:46:03;16.80;99.90
52125;DHT22;38119;52.710;6.398;2022-09-01T08:48:40;17.00;99.90
52125;DHT22;38119;52.710;6.398;2022-09-01T08:51:37;17.10;99.90
52125;DHT22;38119;52.710;6.398;2022-09-01T08:54:14;17.30;99.90
52125;DHT22;38119;52.710;6.398;2022-09-01T08:56:42;17.50;99.90
52125;DHT22;38119;52.710;6.398;2022-09-01T08:59:09;17.70;99.90
52125;DHT22;38119;52.710;6.398;2022-09-01T09:04:57;18.20;99.90
52125;DHT22;38119;52.710;6.398;2022-09-01T09:10:06;18.80;99.90
52125;DHT22;38119;52.710;6.398;2022-09-01T09:12:47;19.20;99.90
52125;DHT22;38119;52.710;6.398;2022-09-01T09:15:42;19.40;99.90
52125;DHT22;38119;52.710;6.398;2022-09-01T09:18:26;19.70;99.90
52125;DHT22;38119;52.710;6.398;2022-09-01T09:20:52;19.90;99.90
52125;DHT22;38119;52.710;6.398;2022-09-01T09:23:31;20.10;99.30
52125;DHT22;38119;52.710;6.398;2022-09-01T09:25:58;20.30;98.30
52125;DHT22;38119;52.710;6.398;2022-09-01T09:28:24;20.50;98.20
52125;DHT22;38119;52.710;6.398;2022-09-01T09:30:50;20.70;97.70
52125;DHT22;38119;52.710;6.398;2022-09-01T09:33:37;20.80;96.40
52125;DHT22;38119;52.710;6.398;2022-09-01T09:36:31;21.00;95.30
52125;DHT22;38119;52.710;6.398;2022-09-01T09:41:38;21.40;94.80
52125;DHT22;38119;52.710;6.398;2022-09-01T09:44:26;21.50;94.40
52125;DHT22;38119;52.710;6.398;2022-09-01T09:46:57;21.80;92.50
52125;DHT22;38119;52.710;6.398;2022-09-01T09:49:27;21.80;92.90
52125;DHT22;38119;52.710;6.398;2022-09-01T09:54:30;22.20;91.80
52125;DHT22;38119;52.710;6.398;2022-09-01T10:00:06;22.50;90.00
52125;DHT22;38119;52.710;6.398;2022-09-01T10:02:38;22.70;88.70
52125;DHT22;38119;52.710;6.398;2022-09-01T10:05:33;22.80;89.90
52125;DHT22;38119;52.710;6.398;2022-09-01T10:07:59;22.90;86.70
52125;DHT22;38119;52.710;6.398;2022-09-01T10:10:42;23.00;87.90
52125;DHT22;38119;52.710;6.398;2022-09-01T10:13:17;23.10;84.30
52125;DHT22;38119;52.710;6.398;2022-09-01T10:15:48;23.10;85.10
52125;DHT22;38119;52.710;6.398;2022-09-01T10:18:26;23.10;84.80
52125;DHT22;38119;52.710;6.398;2022-09-01T10:21:23;23.20;84.80
52125;DHT22;38119;52.710;6.398;2022-09-01T10:23:52;23.30;82.30
52125;DHT22;38119;52.710;6.398;2022-09-01T10:26:25;23.50;83.40
52125;DHT22;38119;52.710;6.398;2022-09-01T10:29:27;23.60;81.90
52125;DHT22;38119;52.710;6.398;2022-09-01T10:32:01;23.70;77.80
52125;DHT22;38119;52.710;6.398;2022-09-01T10:34:32;23.70;78.20
52125;DHT22;38119;52.710;6.398;2022-09-01T10:37:08;23.80;75.20
52125;DHT22;38119;52.710;6.398;2022-09-01T10:40:13;23.80;75.10
52125;DHT22;38119;52.710;6.398;2022-09-01T10:42:41;23.80;73.80
52125;DHT22;38119;52.710;6.398;2022-09-01T10:50:49;23.40;70.30
52125;DHT22;38119;52.710;6.398;2022-09-01T10:56:22;23.60;72.80
52125;DHT22;38119;52.710;6.398;2022-09-01T11:04:17;23.30;71.00
52125;DHT22;38119;52.710;6.398;2022-09-01T11:06:45;23.00;72.40
52125;DHT22;38119;52.710;6.398;2022-09-01T11:09:21;23.20;73.60
52125;DHT22;38119;52.710;6.398;2022-09-01T11:14:32;23.40;70.30
52125;DHT22;38119;52.710;6.398;2022-09-01T11:17:33;23.30;71.40
52125;DHT22;38119;52.710;6.398;2022-09-01T11:22:44;23.20;71.10
52125;DHT22;38119;52.710;6.398;2022-09-01T11:25:34;23.40;71.10
52125;DHT22;38119;52.710;6.398;2022-09-01T11:30:48;24.00;70.70
52125;DHT22;38119;52.710;6.398;2022-09-01T11:36:55;24.50;66.50
52125;DHT22;38119;52.710;6.398;2022-09-01T11:39:07;24.60;66.30
52125;DHT22;38119;52.710;6.398;2022-09-01T11:44:25;24.30;65.10
52125;DHT22;38119;52.710;6.398;2022-09-01T11:46:57;24.30;66.40
52125;DHT22;38119;52.710;6.398;2022-09-01T11:52:16;24.90;65.70
52125;DHT22;38119;52.710;6.398;2022-09-01T11:54:43;25.10;64.20
52125;DHT22;38119;52.710;6.398;2022-09-01T11:57:17;25.30;65.90
52125;DHT22;38119;52.710;6.398;2022-09-01T11:59:44;25.20;63.50
52125;DHT22;38119;52.710;6.398;2022-09-01T12:02:23;25.20;63.70
52125;DHT22;38119;52.710;6.398;2022-09-01T12:04:53;25.10;63.20
52125;DHT22;38119;52.710;6.398;2022-09-01T12:07:43;25.10;63.00
52125;DHT22;38119;52.710;6.398;2022-09-01T12:12:59;25.00;62.30
52125;DHT22;38119;52.710;6.398;2022-09-01T12:15:25;24.80;61.00
52125;DHT22;38119;52.710;6.398;2022-09-01T12:17:52;24.50;61.20
52125;DHT22;38119;52.710;6.398;2022-09-01T12:20:28;24.50;61.60
52125;DHT22;38119;52.710;6.398;2022-09-01T12:22:59;24.60;61.80
52125;DHT22;38119;52.710;6.398;2022-09-01T12:25:29;24.60;61.20
52125;DHT22;38119;52.710;6.398;2022-09-01T12:27:56;24.60;61.70
52125;DHT22;38119;52.710;6.398;2022-09-01T12:30:26;24.30;61.30
52125;DHT22;38119;52.710;6.398;2022-09-01T12:32:53;24.10;61.30
52125;DHT22;38119;52.710;6.398;2022-09-01T12:35:22;23.90;61.60
52125;DHT22;38119;52.710;6.398;2022-09-01T12:37:48;23.90;62.00
52125;DHT22;38119;52.710;6.398;2022-09-01T12:40:31;23.90;61.90
52125;DHT22;38119;52.710;6.398;2022-09-01T12:42:57;24.00;61.60
52125;DHT22;38119;52.710;6.398;2022-09-01T12:45:44;24.00;61.40
52125;DHT22;38119;52.710;6.398;2022-09-01T12:48:43;24.00;60.00
52125;DHT22;38119;52.710;6.398;2022-09-01T12:51:24;23.90;60.40
52125;DHT22;38119;52.710;6.398;2022-09-01T12:53:55;23.80;61.00
52125;DHT22;38119;52.710;6.398;2022-09-01T12:56:35;23.70;61.20
52125;DHT22;38119;52.710;6.398;2022-09-01T12:59:29;23.60;61.00
52125;DHT22;38119;52.710;6.398;2022-09-01T13:01:55;23.40;61.00
52125;DHT22;38119;52.710;6.398;2022-09-01T13:04:27;23.20;61.30
52125;DHT22;38119;52.710;6.398;2022-09-01T13:06:59;23.20;62.60
52125;DHT22;38119;52.710;6.398;2022-09-01T13:09:28;23.20;62.10
52125;DHT22;38119;52.710;6.398;2022-09-01T13:12:18;23.20;62.00
52125;DHT22;38119;52.710;6.398;2022-09-01T13:14:44;23.20;61.40
52125;DHT22;38119;52.710;6.398;2022-09-01T13:17:10;23.20;61.70
52125;DHT22;38119;52.710;6.398;2022-09-01T13:19:37;23.00;61.60
52125;DHT22;38119;52.710;6.398;2022-09-01T13:22:05;23.00;62.10
52125;DHT22;38119;52.710;6.398;2022-09-01T13:24:31;23.00;62.20
52125;DHT22;38119;52.710;6.398;2022-09-01T13:26:57;23.00;61.90
52125;DHT22;38119;52.710;6.398;2022-09-01T13:29:23;22.90;62.10
52125;DHT22;38119;52.710;6.398;2022-09-01T13:31:49;22.90;62.30
52125;DHT22;38119;52.710;6.398;2022-09-01T13:34:15;23.10;62.50
52125;DHT22;38119;52.710;6.398;2022-09-01T13:36:41;23.30;61.60
52125;DHT22;38119;52.710;6.398;2022-09-01T13:39:08;23.60;61.10
52125;DHT22;38119;52.710;6.398;2022-09-01T13:41:35;23.80;61.10
52125;DHT22;38119;52.710;6.398;2022-09-01T13:44:00;23.90;60.80
52125;DHT22;38119;52.710;6.398;2022-09-01T13:46:26;24.00;60.80
52125;DHT22;38119;52.710;6.398;2022-09-01T13:48:52;24.00;60.60
52125;DHT22;38119;52.710;6.398;2022-09-01T13:51:27;24.10;60.40
52125;DHT22;38119;52.710;6.398;2022-09-01T13:53:54;24.20;58.70
52125;DHT22;38119;52.710;6.398;2022-09-01T13:56:19;24.20;59.20
52125;DHT22;38119;52.710;6.398;2022-09-01T13:58:47;24.30;60.20
52125;DHT22;38119;52.710;6.398;2022-09-01T14:01:13;24.40;59.50
52125;DHT22;38119;52.710;6.398;2022-09-01T14:03:40;24.40;59.00
52125;DHT22;38119;52.710;6.398;2022-09-01T14:06:06;24.40;58.90
52125;DHT22;38119;52.710;6.398;2022-09-01T14:08:32;24.40;58.40
52125;DHT22;38119;52.710;6.398;2022-09-01T14:10:59;24.40;58.30
52125;DHT22;38119;52.710;6.398;2022-09-01T14:13:25;24.60;57.80
52125;DHT22;38119;52.710;6.398;2022-09-01T14:15:52;24.60;58.00
52125;DHT22;38119;52.710;6.398;2022-09-01T14:18:18;24.70;58.00
52125;DHT22;38119;52.710;6.398;2022-09-01T14:20:47;24.80;58.00
52125;DHT22;38119;52.710;6.398;2022-09-01T14:23:16;24.80;57.50
52125;DHT22;38119;52.710;6.398;2022-09-01T14:25:44;24.80;58.40
52125;DHT22;38119;52.710;6.398;2022-09-01T14:28:13;24.80;58.00
52125;DHT22;38119;52.710;6.398;2022-09-01T14:30:40;24.80;57.20
52125;DHT22;38119;52.710;6.398;2022-09-01T14:33:10;24.80;56.80
52125;DHT22;38119;52.710;6.398;2022-09-01T14:35:42;24.80;56.80
52125;DHT22;38119;52.710;6.398;2022-09-01T14:38:09;24.80;56.50
52125;DHT22;38119;52.710;6.398;2022-09-01T14:40:38;24.80;56.70
52125;DHT22;38119;52.710;6.398;2022-09-01T14:43:06;24.70;56.20
52125;DHT22;38119;52.710;6.398;2022-09-01T14:45:34;24.50;56.00
52125;DHT22;38119;52.710;6.398;2022-09-01T14:48:03;24.40;55.90
52125;DHT22;38119;52.710;6.398;2022-09-01T14:50:30;24.30;56.30
52125;DHT22;38119;52.710;6.398;2022-09-01T14:52:57;24.30;56.60
52125;DHT22;38119;52.710;6.398;2022-09-01T14:55:26;24.40;56.60
52125;DHT22;38119;52.710;6.398;2022-09-01T14:57:53;24.40;56.70
52125;DHT22;38119;52.710;6.398;2022-09-01T15:00:22;24.40;56.60
52125;DHT22;38119;52.710;6.398;2022-09-01T15:02:49;24.50;56.20
52125;DHT22;38119;52.710;6.398;2022-09-01T15:05:15;24.50;55.90
52125;DHT22;38119;52.710;6.398;2022-09-01T15:07:41;24.60;55.80
52125;DHT22;38119;52.710;6.398;2022-09-01T15:10:10;24.60;55.90
52125;DHT22;38119;52.710;6.398;2022-09-01T15:12:36;24.70;55.70
52125;DHT22;38119;52.710;6.398;2022-09-01T15:15:05;24.80;55.70
52125;DHT22;38119;52.710;6.398;2022-09-01T15:17:32;24.80;55.70
52125;DHT22;38119;52.710;6.398;2022-09-01T15:19:59;24.80;55.60
52125;DHT22;38119;52.710;6.398;2022-09-01T15:22:45;24.80;55.40
52125;DHT22;38119;52.710;6.398;2022-09-01T15:25:11;24.80;55.50
52125;DHT22;38119;52.710;6.398;2022-09-01T15:27:37;24.80;55.30
52125;DHT22;38119;52.710;6.398;2022-09-01T15:30:03;24.70;55.20
52125;DHT22;38119;52.710;6.398;2022-09-01T15:32:36;24.70;55.40
52125;DHT22;38119;52.710;6.398;2022-09-01T15:35:02;24.60;55.50
52125;DHT22;38119;52.710;6.398;2022-09-01T15:37:27;24.70;55.80
52125;DHT22;38119;52.710;6.398;2022-09-01T15:39:53;24.60;55.60
52125;DHT22;38119;52.710;6.398;2022-09-01T15:42:19;24.60;55.10
52125;DHT22;38119;52.710;6.398;2022-09-01T15:44:46;24.60;54.90
52125;DHT22;38119;52.710;6.398;2022-09-01T15:47:11;24.60;55.10
52125;DHT22;38119;52.710;6.398;2022-09-01T15:49:37;24.50;54.90
52125;DHT22;38119;52.710;6.398;2022-09-01T15:52:03;24.50;55.30
52125;DHT22;38119;52.710;6.398;2022-09-01T15:54:36;24.40;55.20
52125;DHT22;38119;52.710;6.398;2022-09-01T15:57:02;24.50;55.30
52125;DHT22;38119;52.710;6.398;2022-09-01T15:59:28;24.40;55.30
52125;DHT22;38119;52.710;6.398;2022-09-01T16:01:53;24.40;55.10
52125;DHT22;38119;52.710;6.398;2022-09-01T16:04:19;24.30;55.10
52125;DHT22;38119;52.710;6.398;2022-09-01T16:06:45;24.20;55.20
52125;DHT22;38119;52.710;6.398;2022-09-01T16:09:12;24.20;55.60
52125;DHT22;38119;52.710;6.398;2022-09-01T16:11:39;24.10;56.00
52125;DHT22;38119;52.710;6.398;2022-09-01T16:14:06;24.00;55.70
52125;DHT22;38119;52.710;6.398;2022-09-01T16:22:22;23.90;55.90
52125;DHT22;38119;52.710;6.398;2022-09-01T16:24:52;23.90;55.40
52125;DHT22;38119;52.710;6.398;2022-09-01T16:27:34;23.80;55.70
52125;DHT22;38119;52.710;6.398;2022-09-01T16:30:07;23.80;55.30
52125;DHT22;38119;52.710;6.398;2022-09-01T16:32:38;23.80;55.80
52125;DHT22;38119;52.710;6.398;2022-09-01T16:35:05;23.80;55.60
52125;DHT22;38119;52.710;6.398;2022-09-01T16:45:44;23.60;56.20
52125;DHT22;38119;52.710;6.398;2022-09-01T16:54:17;23.40;55.60
52125;DHT22;38119;52.710;6.398;2022-09-01T16:57:06;23.30;55.00
52125;DHT22;38119;52.710;6.398;2022-09-01T16:59:59;23.30;55.20
52125;DHT22;38119;52.710;6.398;2022-09-01T17:02:32;23.20;55.60